createdAt,value
2023-02-08T00:01:09.824Z,102862.81
2023-02-08T00:04:31.836Z,102860.25
2023-02-08T00:07:53.534Z,102855.22
2023-02-08T00:11:15.249Z,102833.00
2023-02-08T00:14:38.150Z,102826.78
2023-02-08T00:18:01.388Z,102845.97
2023-02-08T00:21:23.647Z,102837.44
2023-02-08T00:24:45.633Z,102831.47
2023-02-08T00:28:09.597Z,102824.63
2023-02-08T00:31:31.361Z,102811.63
2023-02-08T00:34:54.238Z,102813.47
2023-02-08T00:38:18.131Z,102804.94
2023-02-08T00:41:40.062Z,102799.84
2023-02-08T00:45:02.026Z,102816.97
2023-02-08T00:48:23.825Z,102812.66
2023-02-08T00:51:47.112Z,102816.03
2023-02-08T00:55:09.859Z,102803.97
2023-02-08T00:58:31.999Z,102805.09
2023-02-08T01:01:53.847Z,102815.31
2023-02-08T01:05:16.045Z,102791.38
2023-02-08T01:08:39.466Z,102798.31
2023-02-08T01:12:01.684Z,102792.41
2023-02-08T01:15:23.400Z,102788.91
2023-02-08T01:18:47.165Z,102806.91
2023-02-08T01:22:09.086Z,102800.94
2023-02-08T01:25:32.733Z,102793.28
2023-02-08T01:28:56.241Z,102798.38
2023-02-08T01:32:17.938Z,102780.34
2023-02-08T01:35:39.844Z,102777.00
2023-02-08T01:39:02.372Z,102765.56
2023-02-08T01:42:25.659Z,102781.22
2023-02-08T01:45:47.733Z,102783.91
2023-02-08T01:49:12.924Z,102778.81
2023-02-08T01:52:35.079Z,102778.00
2023-02-08T01:56:00.829Z,102785.78
2023-02-08T01:59:28.542Z,102785.72
2023-02-08T02:02:53.694Z,102794.34
2023-02-08T02:06:20.246Z,102792.63
2023-02-08T02:09:48.855Z,102789.13
2023-02-08T02:13:15.057Z,102789.97
2023-02-08T02:16:38.571Z,102792.63
2023-02-08T02:20:08.363Z,102789.16
2023-02-08T02:24:03.608Z,102785.69
2023-02-08T02:27:35.932Z,102796.94
2023-02-08T02:31:45.523Z,102801.09
2023-02-08T02:35:17.157Z,102789.94
2023-02-08T02:38:50.262Z,102782.94
2023-02-08T02:42:36.913Z,102786.53
2023-02-08T02:46:07.054Z,102784.91
2023-02-08T02:49:36.562Z,102790.06
2023-02-08T02:53:04.636Z,102769.47
2023-02-08T02:56:32.046Z,102777.19
2023-02-08T02:59:53.847Z,102769.50
2023-02-08T03:03:21.500Z,102739.03
2023-02-08T03:06:58.408Z,102766.06
2023-02-08T03:10:38.171Z,102769.59
2023-02-08T03:14:05.605Z,102768.75
2023-02-08T03:17:43.296Z,102756.56
2023-02-08T03:21:13.284Z,102782.44
2023-02-08T03:24:45.377Z,102783.41
2023-02-08T03:28:13.369Z,102781.69
2023-02-08T03:31:43.339Z,102783.44
2023-02-08T03:35:11.328Z,102772.34
2023-02-08T03:38:37.652Z,102776.66
2023-02-08T03:42:01.711Z,102765.50
2023-02-08T03:45:29.792Z,102779.38
2023-02-08T03:48:58.437Z,102769.13
2023-02-08T03:52:20.948Z,102750.94
2023-02-08T03:55:47.022Z,102755.34
2023-02-08T03:59:12.801Z,102751.16
2023-02-08T04:02:42.346Z,102748.59
2023-02-08T04:06:04.087Z,102758.97
2023-02-08T04:09:26.240Z,102760.75
2023-02-08T04:12:50.113Z,102760.75
2023-02-08T04:16:13.342Z,102764.19
2023-02-08T04:19:36.495Z,102766.03
2023-02-08T04:22:58.581Z,102759.13
2023-02-08T04:26:20.443Z,102776.41
2023-02-08T04:29:42.489Z,102773.94
2023-02-08T04:33:05.094Z,102782.66
2023-02-08T04:36:28.260Z,102783.50
2023-02-08T04:39:50.282Z,102789.53
2023-02-08T04:43:12.088Z,102793.06
2023-02-08T04:46:33.877Z,102785.34
2023-02-08T04:49:55.695Z,102781.16
2023-02-08T04:53:18.871Z,102791.53
2023-02-08T04:56:40.852Z,102794.97
2023-02-08T05:00:03.374Z,102803.59
2023-02-08T05:03:25.084Z,102798.38
2023-02-08T05:06:48.492Z,102795.06
2023-02-08T05:10:11.911Z,102799.47
2023-02-08T05:13:33.825Z,102795.19
2023-02-08T05:16:55.581Z,102808.13
2023-02-08T05:20:17.360Z,102801.31
2023-02-08T05:23:39.505Z,102804.75
2023-02-08T05:27:02.503Z,102812.47
2023-02-08T05:30:24.569Z,102805.66
2023-02-08T05:33:46.456Z,102804.84
2023-02-08T05:37:08.380Z,102810.91
2023-02-08T05:40:30.202Z,102812.69
2023-02-08T05:43:53.364Z,102816.97
2023-02-08T05:47:15.513Z,102812.75
2023-02-08T05:50:37.516Z,102819.63
2023-02-08T05:53:59.245Z,102830.09
2023-02-08T05:57:21.125Z,102838.69
2023-02-08T06:00:44.903Z,102843.94
2023-02-08T06:04:06.896Z,102856.03
2023-02-08T06:07:29.954Z,102858.63
2023-02-08T06:10:51.615Z,102857.00
2023-02-08T06:14:13.317Z,102861.41
2023-02-08T06:17:36.746Z,102877.00
2023-02-08T06:20:58.814Z,102859.06
2023-02-08T06:24:20.404Z,102858.16
2023-02-08T06:27:42.168Z,102866.13
2023-02-08T06:31:03.778Z,102864.44
2023-02-08T06:34:27.099Z,102861.06
2023-02-08T06:37:48.809Z,102862.63
2023-02-08T06:41:10.722Z,102875.00
2023-02-08T06:44:32.535Z,102875.03
2023-02-08T06:47:54.233Z,102879.41
2023-02-08T06:51:17.445Z,102877.59
2023-02-08T06:54:39.026Z,102886.41
2023-02-08T06:58:01.113Z,102889.00
2023-02-08T07:01:22.931Z,102891.66
2023-02-08T07:04:45.647Z,102881.34
2023-02-08T07:08:08.956Z,102864.72
2023-02-08T07:11:30.566Z,102889.19
2023-02-08T07:14:52.355Z,102892.72
2023-02-08T07:18:14.037Z,102878.94
2023-02-08T07:21:36.036Z,102879.06
2023-02-08T07:24:59.146Z,102880.03
2023-02-08T07:28:21.154Z,102883.53
2023-02-08T07:31:42.977Z,102880.94
2023-02-08T07:35:05.015Z,102882.75
2023-02-08T07:38:26.772Z,102879.31
2023-02-08T07:41:50.302Z,102869.88
2023-02-08T07:45:12.376Z,102875.19
2023-02-08T07:48:34.482Z,102871.84
2023-02-08T07:51:56.182Z,102852.94
2023-02-08T07:55:18.725Z,102853.91
2023-02-08T07:58:41.830Z,102846.06
2023-02-08T08:02:03.934Z,102850.53
2023-02-08T08:05:25.725Z,102846.41
2023-02-08T08:08:47.807Z,102836.16
2023-02-08T08:12:09.548Z,102840.66
2023-02-08T08:15:33.123Z,102837.22
2023-02-08T08:18:54.897Z,102841.50
2023-02-08T08:22:16.780Z,102848.38
2023-02-08T08:25:39.089Z,102852.75
2023-02-08T08:29:03.073Z,102848.53
2023-02-08T08:32:26.274Z,102844.34
2023-02-08T08:35:48.327Z,102844.34
2023-02-08T08:39:10.101Z,102851.34
2023-02-08T08:42:31.875Z,102841.81
2023-02-08T08:45:53.588Z,102836.56
2023-02-08T08:49:17.143Z,102845.13
2023-02-08T08:52:40.319Z,102840.88
2023-02-08T08:56:02.197Z,102854.63
2023-02-08T08:59:24.245Z,102855.53
2023-02-08T09:02:46.176Z,102854.72
2023-02-08T09:06:09.528Z,102856.44
2023-02-08T09:09:31.477Z,102865.81
2023-02-08T09:12:54.044Z,102866.72
2023-02-08T09:16:17.979Z,102864.97
2023-02-08T09:19:39.649Z,102866.59
2023-02-08T09:23:02.620Z,102869.16
2023-02-08T09:26:25.285Z,102851.13
2023-02-08T09:29:47.299Z,102844.97
2023-02-08T09:33:09.123Z,102832.97
2023-02-08T09:36:33.722Z,102842.53
2023-02-08T09:39:58.666Z,102844.16
2023-02-08T09:43:26.346Z,102852.97
2023-02-08T09:46:57.496Z,102845.13
2023-02-08T09:50:22.476Z,102845.34
2023-02-08T09:53:50.348Z,102844.50
2023-02-08T09:57:17.897Z,102846.25
2023-02-08T10:00:43.427Z,102841.03
2023-02-08T10:04:10.339Z,102852.31
2023-02-08T10:07:34.386Z,102850.63
2023-02-08T10:10:59.378Z,102851.41
2023-02-08T10:14:39.239Z,102851.34
2023-02-08T10:18:20.939Z,102861.69
2023-02-08T10:21:58.056Z,102859.81
2023-02-08T10:25:37.752Z,102858.22
2023-02-08T10:29:14.622Z,102867.69
2023-02-08T10:33:02.060Z,102852.78
2023-02-08T10:36:30.904Z,102862.47
2023-02-08T10:39:53.391Z,102865.88
2023-02-08T10:43:26.086Z,102848.44
2023-02-08T10:46:56.355Z,102870.19
2023-02-08T10:50:29.921Z,102859.72
2023-02-08T10:53:52.187Z,102860.72
2023-02-08T10:57:19.009Z,102866.72
2023-02-08T11:00:41.877Z,102864.94
2023-02-08T11:04:06.454Z,102850.34
2023-02-08T11:07:29.608Z,102856.59
2023-02-08T11:11:00.125Z,102855.78
2023-02-08T11:14:41.014Z,102858.44
2023-02-08T11:18:08.612Z,102852.38
2023-02-08T11:21:35.073Z,102845.34
2023-02-08T11:25:00.632Z,102860.94
2023-02-08T11:28:31.643Z,102856.66
2023-02-08T11:32:02.508Z,102860.88
2023-02-08T11:35:25.967Z,102855.72
2023-02-08T11:38:47.931Z,102860.03
2023-02-08T11:42:21.636Z,102847.84
2023-02-08T11:45:48.136Z,102859.88
2023-02-08T11:49:23.322Z,102854.66
2023-02-08T11:52:46.319Z,102851.97
2023-02-08T11:56:18.365Z,102856.25
2023-02-08T11:59:41.637Z,102855.44
2023-02-08T12:03:07.622Z,102843.38
2023-02-08T12:07:04.854Z,102844.09
2023-02-08T12:10:50.125Z,102849.31
2023-02-08T12:14:28.108Z,102851.03
2023-02-08T12:18:16.990Z,102850.19
2023-02-08T12:21:44.154Z,102842.38
2023-02-08T12:25:22.349Z,102832.88
2023-02-08T12:29:19.514Z,102843.31
2023-02-08T12:32:58.577Z,102838.94
2023-02-08T12:36:36.701Z,102837.34
2023-02-08T12:40:28.212Z,102848.53
2023-02-08T12:44:02.457Z,102839.81
2023-02-08T12:47:58.217Z,102840.69
2023-02-08T12:51:37.160Z,102837.31
2023-02-08T12:55:04.454Z,102843.31
2023-02-08T12:58:30.965Z,102843.31
2023-02-08T13:01:57.429Z,102826.88
2023-02-08T13:05:23.013Z,102838.22
2023-02-08T13:08:51.737Z,102824.31
2023-02-08T13:12:17.388Z,102829.47
2023-02-08T13:15:43.134Z,102837.31
2023-02-08T13:19:28.765Z,102830.47
2023-02-08T13:22:53.147Z,102839.09
2023-02-08T13:26:21.639Z,102832.16
2023-02-08T13:29:47.253Z,102821.66
2023-02-08T13:33:19.215Z,102820.00
2023-02-08T13:36:50.425Z,102819.00
2023-02-08T13:40:21.595Z,102811.19
2023-02-08T13:43:51.655Z,102812.19
2023-02-08T13:47:25.813Z,102815.72
2023-02-08T13:50:49.308Z,102814.00
2023-02-08T13:54:14.381Z,102815.81
2023-02-08T13:57:53.682Z,102802.97
2023-02-08T14:01:23.625Z,102802.91
2023-02-08T14:04:46.823Z,102809.00
2023-02-08T14:08:18.328Z,102793.47
2023-02-08T14:11:48.851Z,102783.91
2023-02-08T14:15:32.179Z,102794.53
2023-02-08T14:19:00.130Z,102796.97
2023-02-08T14:22:22.636Z,102791.81
2023-02-08T14:25:48.098Z,102783.16
2023-02-08T14:29:10.226Z,102784.06
2023-02-08T14:32:35.092Z,102778.91
2023-02-08T14:36:01.027Z,102745.78
2023-02-08T14:39:29.221Z,102774.59
2023-02-08T14:42:59.749Z,102769.41
2023-02-08T14:46:46.085Z,102758.13
2023-02-08T14:50:17.217Z,102780.47
2023-02-08T14:53:46.297Z,102778.75
2023-02-08T14:57:28.102Z,102767.59
2023-02-08T15:00:53.717Z,102769.31
2023-02-08T15:04:18.390Z,102767.66
2023-02-08T15:07:46.610Z,102761.66
2023-02-08T15:11:22.722Z,102746.09
2023-02-08T15:14:46.284Z,102731.19
2023-02-08T15:18:18.847Z,102748.69
2023-02-08T15:21:41.351Z,102759.94
2023-02-08T15:25:14.807Z,102764.25
2023-02-08T15:28:38.018Z,102765.16
2023-02-08T15:32:01.798Z,102751.31
2023-02-08T15:35:26.002Z,102759.94
2023-02-08T15:38:48.427Z,102746.81
2023-02-08T15:42:18.373Z,102754.78
2023-02-08T15:45:40.747Z,102753.97
2023-02-08T15:49:04.254Z,102749.72
2023-02-08T15:52:29.934Z,102760.84
2023-02-08T15:55:55.656Z,102756.56
2023-02-08T15:59:24.007Z,102763.44
2023-02-08T16:02:52.134Z,102745.16
2023-02-08T16:06:15.544Z,102751.31
2023-02-08T16:09:38.096Z,102741.81
2023-02-08T16:13:03.466Z,102758.22
2023-02-08T16:16:37.868Z,102757.44
2023-02-08T16:19:59.839Z,102746.09
2023-02-08T16:23:28.064Z,102740.09
2023-02-08T16:27:00.270Z,102744.56
2023-02-08T16:30:24.421Z,102734.25
2023-02-08T16:33:46.394Z,102728.03
2023-02-08T16:37:19.005Z,102742.81
2023-02-08T16:40:51.712Z,102741.94
2023-02-08T16:44:23.952Z,102742.81
2023-02-08T16:47:48.444Z,102722.88
2023-02-08T16:51:15.868Z,102737.66
2023-02-08T16:54:37.750Z,102728.06
2023-02-08T16:58:01.603Z,102734.22
2023-02-08T17:01:24.682Z,102723.69
2023-02-08T17:04:46.485Z,102734.09
2023-02-08T17:08:10.081Z,102728.13
2023-02-08T17:11:32.423Z,102735.06
2023-02-08T17:14:56.025Z,102730.69
2023-02-08T17:18:18.264Z,102727.13
2023-02-08T17:21:40.136Z,102735.84
2023-02-08T17:25:01.882Z,102729.75
2023-02-08T17:28:24.188Z,102709.75
2023-02-08T17:31:48.525Z,102729.78
2023-02-08T17:35:11.046Z,102730.63
2023-02-08T17:38:33.042Z,102730.72
2023-02-08T17:41:55.145Z,102716.81
2023-02-08T17:45:17.280Z,102722.13
2023-02-08T17:48:40.843Z,102715.31
2023-02-08T17:52:03.055Z,102708.44
2023-02-08T17:55:25.735Z,102710.88
2023-02-08T17:58:51.336Z,102710.25
2023-02-08T18:02:15.140Z,102701.53
2023-02-08T18:05:38.569Z,102699.94
2023-02-08T18:09:00.398Z,102701.63
2023-02-08T18:12:22.173Z,102700.81
2023-02-08T18:15:44.495Z,102705.97
2023-02-08T18:19:06.327Z,102699.94
2023-02-08T18:22:30.089Z,102686.00
2023-02-08T18:25:52.345Z,102697.41
2023-02-08T18:29:14.521Z,102702.56
2023-02-08T18:32:36.550Z,102684.44
2023-02-08T18:35:58.532Z,102690.59
2023-02-08T18:39:23.377Z,102687.09
2023-02-08T18:42:45.593Z,102686.09
2023-02-08T18:46:10.097Z,102690.50
2023-02-08T18:49:31.941Z,102689.66
2023-02-08T18:52:54.209Z,102693.09
2023-02-08T18:56:18.229Z,102678.34
2023-02-08T18:59:40.279Z,102685.22
2023-02-08T19:03:01.941Z,102681.63
2023-02-08T19:06:25.748Z,102693.81
2023-02-08T19:09:47.952Z,102692.13
2023-02-08T19:13:13.472Z,102678.28
2023-02-08T19:16:37.144Z,102671.41
2023-02-08T19:19:59.862Z,102678.34
2023-02-08T19:23:21.558Z,102668.75
2023-02-08T19:26:43.360Z,102680.91
2023-02-08T19:30:07.283Z,102674.03
2023-02-08T19:33:29.354Z,102668.84
2023-02-08T19:36:53.400Z,102671.41
2023-02-08T19:40:16.504Z,102664.53
2023-02-08T19:43:38.387Z,102659.31
2023-02-08T19:47:01.673Z,102661.09
2023-02-08T19:50:23.516Z,102648.06
2023-02-08T19:53:45.500Z,102657.72
2023-02-08T19:57:11.774Z,102645.69
2023-02-08T20:00:33.619Z,102638.81
2023-02-08T20:03:56.935Z,102631.88
2023-02-08T20:07:19.323Z,102625.81
2023-02-08T20:10:42.072Z,102629.28
2023-02-08T20:14:03.892Z,102627.56
2023-02-08T20:17:25.671Z,102619.75
2023-02-08T20:20:59.299Z,102610.25
2023-02-08T20:24:21.852Z,102607.66
2023-02-08T20:27:43.721Z,102608.50
2023-02-08T20:31:08.530Z,102605.03
2023-02-08T20:34:30.526Z,102602.44
2023-02-08T20:37:53.868Z,102601.53
2023-02-08T20:41:20.157Z,102594.63
2023-02-08T20:44:41.893Z,102598.00
2023-02-08T20:48:04.237Z,102589.41
2023-02-08T20:51:27.505Z,102582.44
2023-02-08T20:54:50.973Z,102587.69
2023-02-08T20:58:13.522Z,102584.13
2023-02-08T21:01:36.743Z,102578.19
2023-02-08T21:04:58.720Z,102567.78
2023-02-08T21:08:20.713Z,102585.91
2023-02-08T21:11:45.053Z,102585.13
2023-02-08T21:15:08.403Z,102572.06
2023-02-08T21:18:30.107Z,102577.31
2023-02-08T21:21:53.327Z,102574.72
2023-02-08T21:25:15.739Z,102579.03
2023-02-08T21:28:39.454Z,102577.28
2023-02-08T21:32:01.293Z,102572.09
2023-02-08T21:35:23.802Z,102579.03
2023-02-08T21:38:46.286Z,102569.63
2023-02-08T21:42:08.033Z,102568.72
2023-02-08T21:45:31.217Z,102564.41
2023-02-08T21:49:10.757Z,102558.41
2023-02-08T21:52:50.370Z,102552.25
2023-02-08T21:56:12.628Z,102558.28
2023-02-08T21:59:37.208Z,102553.97
2023-02-08T22:03:01.388Z,102563.47
2023-02-08T22:06:40.961Z,102547.81
2023-02-08T22:10:07.606Z,102563.56
2023-02-08T22:13:29.394Z,102557.53
2023-02-08T22:16:51.315Z,102550.63
2023-02-08T22:20:16.434Z,102539.34
2023-02-08T22:23:38.463Z,102546.38
2023-02-08T22:27:00.402Z,102550.53
2023-02-08T22:30:25.430Z,102537.72
2023-02-08T22:33:47.674Z,102524.75
2023-02-08T22:37:11.071Z,102522.25
2023-02-08T22:40:33.223Z,102522.13
2023-02-08T22:43:55.539Z,102527.34
2023-02-08T22:47:17.418Z,102521.25
2023-02-08T22:50:39.539Z,102514.31
2023-02-08T22:54:02.971Z,102507.50
2023-02-08T22:57:25.126Z,102504.78
2023-02-08T23:00:49.432Z,102493.50
2023-02-08T23:04:11.255Z,102508.25
2023-02-08T23:07:33.452Z,102503.13
2023-02-08T23:11:01.318Z,102497.88
2023-02-08T23:14:23.576Z,102484.88
2023-02-08T23:17:45.535Z,102494.50
2023-02-08T23:21:08.717Z,102486.56
2023-02-08T23:24:30.390Z,102497.78
2023-02-08T23:27:53.703Z,102495.19
2023-02-08T23:31:16.208Z,102489.00
2023-02-08T23:34:38.192Z,102496.84
2023-02-08T23:38:00.012Z,102493.38
2023-02-08T23:41:23.763Z,102467.25
2023-02-08T23:44:46.967Z,102476.88
2023-02-08T23:48:09.009Z,102484.63
2023-02-08T23:51:30.926Z,102476.84
2023-02-08T23:54:53.090Z,102475.91
2023-02-08T23:58:14.933Z,102470.75
